createdAt,value
2023-05-19T00:02:09.298Z,12.90
2023-05-19T00:04:37.099Z,12.90
2023-05-19T00:07:05.662Z,12.90
2023-05-19T00:09:32.865Z,12.90
2023-05-19T00:12:00.145Z,12.90
2023-05-19T00:14:29.069Z,12.80
2023-05-19T00:16:57.952Z,12.80
2023-05-19T00:19:25.582Z,12.80
2023-05-19T00:21:52.476Z,12.80
2023-05-19T00:24:19.357Z,12.70
2023-05-19T00:26:46.185Z,12.70
2023-05-19T00:29:13.249Z,12.70
2023-05-19T00:31:40.148Z,12.70
2023-05-19T00:34:09.247Z,12.60
2023-05-19T00:36:36.188Z,12.60
2023-05-19T00:39:03.443Z,12.60
2023-05-19T00:41:30.392Z,12.50
2023-05-19T00:43:57.665Z,12.50
2023-05-19T00:46:24.914Z,12.40
2023-05-19T00:48:51.942Z,12.40
2023-05-19T00:51:19.160Z,12.40
2023-05-19T00:53:49.213Z,12.40
2023-05-19T00:56:16.986Z,12.40
2023-05-19T00:58:44.763Z,12.30
2023-05-19T01:01:14.547Z,12.30
2023-05-19T01:03:43.521Z,12.30
2023-05-19T01:06:12.209Z,12.20
2023-05-19T01:08:39.530Z,12.20
2023-05-19T01:11:07.487Z,12.20
2023-05-19T01:13:36.275Z,12.10
2023-05-19T01:16:13.079Z,12.20
2023-05-19T01:19:17.121Z,12.10
2023-05-19T01:21:52.764Z,12.10
2023-05-19T01:24:38.019Z,12.10
2023-05-19T01:27:23.407Z,12.10
2023-05-19T01:30:17.888Z,12.10
2023-05-19T01:32:47.981Z,12.00
2023-05-19T01:35:16.791Z,12.00
2023-05-19T01:37:45.381Z,12.00
2023-05-19T01:40:13.137Z,12.00
2023-05-19T01:42:40.872Z,12.00
2023-05-19T01:45:10.662Z,12.00
2023-05-19T01:47:42.467Z,12.00
2023-05-19T01:50:09.923Z,11.90
2023-05-19T01:52:36.903Z,11.90
2023-05-19T01:55:04.193Z,11.90
2023-05-19T01:57:54.238Z,11.90
2023-05-19T02:00:52.033Z,11.90
2023-05-19T02:03:29.544Z,11.90
2023-05-19T02:06:16.143Z,11.80
2023-05-19T02:08:57.115Z,11.80
2023-05-19T02:11:53.356Z,11.90
2023-05-19T02:14:30.351Z,11.90
2023-05-19T02:16:59.304Z,11.80
2023-05-19T02:19:29.384Z,11.90
2023-05-19T02:21:56.564Z,11.90
2023-05-19T02:24:23.915Z,11.90
2023-05-19T02:26:52.174Z,11.90
2023-05-19T02:29:19.947Z,11.90
2023-05-19T02:31:47.667Z,11.90
2023-05-19T02:34:14.894Z,11.90
2023-05-19T02:36:45.551Z,11.90
2023-05-19T02:39:12.471Z,11.90
2023-05-19T02:41:39.466Z,11.90
2023-05-19T02:44:06.484Z,11.80
2023-05-19T02:46:34.205Z,11.90
2023-05-19T02:49:01.075Z,11.90
2023-05-19T02:51:27.970Z,11.90
2023-05-19T02:53:54.884Z,11.90
2023-05-19T02:56:21.888Z,11.80
2023-05-19T02:58:48.779Z,11.80
2023-05-19T03:01:16.647Z,11.80
2023-05-19T03:03:43.764Z,11.80
2023-05-19T03:06:10.706Z,11.80
2023-05-19T03:08:38.832Z,11.80
2023-05-19T03:11:07.629Z,11.80
2023-05-19T03:13:34.936Z,11.80
2023-05-19T03:16:02.168Z,11.70
2023-05-19T03:18:29.330Z,11.80
2023-05-19T03:20:56.510Z,11.80
2023-05-19T03:23:23.671Z,11.80
2023-05-19T03:25:50.944Z,11.80
2023-05-19T03:28:18.336Z,11.70
2023-05-19T03:30:45.481Z,11.70
2023-05-19T03:33:17.355Z,11.80
2023-05-19T03:35:45.644Z,11.70
2023-05-19T03:38:13.505Z,11.70
2023-05-19T03:40:46.758Z,11.70
2023-05-19T03:43:13.685Z,11.70
2023-05-19T03:45:46.602Z,11.70
2023-05-19T03:48:32.426Z,11.70
2023-05-19T03:51:30.110Z,11.80
2023-05-19T03:54:04.570Z,11.70
2023-05-19T03:56:32.748Z,11.70
2023-05-19T03:59:00.230Z,11.70
2023-05-19T04:01:27.185Z,11.70
2023-05-19T04:03:53.991Z,11.70
2023-05-19T04:06:21.150Z,11.60
2023-05-19T04:08:48.011Z,11.60
2023-05-19T04:11:14.965Z,11.60
2023-05-19T04:13:41.852Z,11.60
2023-05-19T04:16:08.874Z,11.60
2023-05-19T04:18:35.920Z,11.50
2023-05-19T04:21:04.585Z,11.50
2023-05-19T04:23:32.576Z,11.40
2023-05-19T04:26:00.510Z,11.50
2023-05-19T04:28:27.633Z,11.50
2023-05-19T04:30:54.862Z,11.40
2023-05-19T04:33:21.885Z,11.40
2023-05-19T04:35:50.276Z,11.40
2023-05-19T04:38:18.998Z,11.40
2023-05-19T04:40:50.199Z,11.50
2023-05-19T04:43:18.099Z,11.50
2023-05-19T04:45:46.567Z,11.40
2023-05-19T04:48:14.052Z,11.40
2023-05-19T04:50:42.255Z,11.40
2023-05-19T04:53:10.040Z,11.50
2023-05-19T04:55:38.780Z,11.50
2023-05-19T04:58:07.085Z,11.50
2023-05-19T05:00:35.884Z,11.50
2023-05-19T05:03:06.987Z,11.40
2023-05-19T05:05:35.141Z,11.40
2023-05-19T05:08:02.008Z,11.40
2023-05-19T05:10:33.363Z,11.40
2023-05-19T05:13:00.881Z,11.40
2023-05-19T05:15:29.832Z,11.40
2023-05-19T05:17:59.401Z,11.50
2023-05-19T05:20:26.763Z,11.50
2023-05-19T05:22:54.141Z,11.50
2023-05-19T05:25:22.628Z,11.50
2023-05-19T05:27:49.969Z,11.50
2023-05-19T05:30:16.843Z,11.60
2023-05-19T05:32:43.836Z,11.50
2023-05-19T05:35:24.573Z,11.50
2023-05-19T05:37:51.673Z,11.40
2023-05-19T05:40:19.105Z,11.50
2023-05-19T05:42:46.302Z,11.50
2023-05-19T05:45:13.858Z,11.50
2023-05-19T05:47:42.013Z,11.50
2023-05-19T05:50:10.674Z,11.40
2023-05-19T05:52:38.710Z,11.50
2023-05-19T05:55:06.868Z,11.50
2023-05-19T05:57:36.507Z,11.50
2023-05-19T06:00:07.877Z,11.50
2023-05-19T06:02:48.973Z,11.60
2023-05-19T06:05:17.731Z,11.60
2023-05-19T06:07:46.718Z,11.60
2023-05-19T06:10:19.057Z,11.70
2023-05-19T06:12:46.736Z,11.70
2023-05-19T06:15:13.711Z,11.80
2023-05-19T06:18:06.820Z,11.80
2023-05-19T06:20:34.025Z,11.90
2023-05-19T06:23:03.003Z,12.00
2023-05-19T06:25:30.503Z,12.00
2023-05-19T06:27:58.220Z,12.00
2023-05-19T06:30:25.730Z,12.00
2023-05-19T06:33:07.092Z,12.00
2023-05-19T06:35:34.098Z,12.10
2023-05-19T06:38:01.249Z,12.10
2023-05-19T06:40:28.385Z,12.10
2023-05-19T06:42:55.515Z,12.20
2023-05-19T06:45:32.118Z,12.30
2023-05-19T06:48:01.848Z,12.30
2023-05-19T06:50:28.853Z,12.40
2023-05-19T06:52:57.264Z,12.40
2023-05-19T06:55:24.931Z,12.40
2023-05-19T06:57:51.854Z,12.50
2023-05-19T07:00:22.993Z,12.50
2023-05-19T07:02:52.567Z,12.50
2023-05-19T07:05:19.865Z,12.50
2023-05-19T07:07:51.329Z,12.60
2023-05-19T07:10:21.997Z,12.60
2023-05-19T07:12:50.606Z,12.60
2023-05-19T07:15:19.213Z,12.60
2023-05-19T07:17:46.153Z,12.70
2023-05-19T07:20:13.236Z,12.80
2023-05-19T07:22:40.232Z,12.80
2023-05-19T07:25:08.524Z,12.80
2023-05-19T07:27:35.869Z,12.90
2023-05-19T07:30:04.080Z,12.90
2023-05-19T07:32:30.991Z,13.00
2023-05-19T07:34:57.932Z,13.10
2023-05-19T07:37:24.886Z,13.00
2023-05-19T07:39:51.722Z,13.00
2023-05-19T07:42:18.589Z,13.10
2023-05-19T07:44:45.549Z,13.10
2023-05-19T07:47:12.392Z,13.10
2023-05-19T07:49:39.299Z,13.20
2023-05-19T07:52:06.745Z,13.20
2023-05-19T07:54:33.630Z,13.20
2023-05-19T07:57:01.003Z,13.30
2023-05-19T07:59:27.858Z,13.30
2023-05-19T08:01:54.710Z,13.30
2023-05-19T08:04:23.833Z,13.40
2023-05-19T08:06:52.900Z,13.40
2023-05-19T08:09:20.147Z,13.50
2023-05-19T08:11:47.140Z,13.60
2023-05-19T08:14:13.987Z,13.60
2023-05-19T08:16:42.306Z,13.60
2023-05-19T08:19:09.413Z,13.50
2023-05-19T08:21:36.680Z,13.40
2023-05-19T08:24:04.355Z,13.50
2023-05-19T08:26:31.331Z,13.50
2023-05-19T08:28:58.194Z,13.50
2023-05-19T08:31:25.128Z,13.50
2023-05-19T08:33:52.467Z,13.50
2023-05-19T08:36:19.526Z,13.60
2023-05-19T08:38:46.408Z,13.50
2023-05-19T08:41:13.245Z,13.60
2023-05-19T08:43:40.141Z,13.60
2023-05-19T08:46:08.229Z,13.60
2023-05-19T08:48:38.836Z,13.60
2023-05-19T08:51:24.946Z,13.60
2023-05-19T08:53:57.719Z,13.60
2023-05-19T08:56:25.259Z,13.70
2023-05-19T08:58:52.342Z,13.80
2023-05-19T09:01:20.414Z,13.80
2023-05-19T09:03:49.916Z,13.90
2023-05-19T09:06:17.171Z,13.90
2023-05-19T09:08:44.831Z,13.90
2023-05-19T09:11:12.014Z,14.00
2023-05-19T09:13:39.237Z,14.00
2023-05-19T09:16:06.669Z,14.00
2023-05-19T09:18:34.023Z,14.10
2023-05-19T09:21:02.635Z,14.20
2023-05-19T09:23:33.524Z,14.30
2023-05-19T09:26:08.390Z,14.30
2023-05-19T09:28:37.812Z,14.40
2023-05-19T09:31:09.682Z,14.40
2023-05-19T09:33:38.056Z,14.40
2023-05-19T09:36:08.764Z,14.40
2023-05-19T09:38:36.957Z,14.40
2023-05-19T09:41:05.411Z,14.40
2023-05-19T09:43:34.263Z,14.30
2023-05-19T09:46:04.824Z,14.20
2023-05-19T09:48:31.845Z,14.20
2023-05-19T09:51:01.185Z,14.30
2023-05-19T09:53:30.326Z,14.20
2023-05-19T09:55:58.266Z,14.10
2023-05-19T09:58:26.542Z,14.10
2023-05-19T10:00:57.380Z,14.10
2023-05-19T10:03:26.210Z,14.10
2023-05-19T10:05:53.948Z,14.00
2023-05-19T10:08:22.708Z,14.00
2023-05-19T10:10:49.792Z,14.00
2023-05-19T10:13:17.247Z,14.10
2023-05-19T10:15:58.259Z,14.10
2023-05-19T10:18:28.022Z,14.10
2023-05-19T10:20:55.944Z,14.20
2023-05-19T10:23:23.599Z,14.20
2023-05-19T10:25:54.810Z,14.30
2023-05-19T10:28:25.560Z,14.20
2023-05-19T10:30:58.819Z,14.30
2023-05-19T10:33:54.290Z,14.30
2023-05-19T10:36:33.126Z,14.30
2023-05-19T10:39:18.993Z,14.30
2023-05-19T10:42:05.046Z,14.20
2023-05-19T10:44:45.093Z,14.20
2023-05-19T10:47:12.446Z,14.10
2023-05-19T10:49:40.369Z,14.20
2023-05-19T10:52:28.798Z,14.20
2023-05-19T10:54:55.892Z,14.20
2023-05-19T10:57:28.158Z,14.20
2023-05-19T10:59:56.910Z,14.30
2023-05-19T11:02:41.199Z,14.30
2023-05-19T11:05:18.293Z,14.30
2023-05-19T11:07:57.366Z,14.40
2023-05-19T11:10:24.575Z,14.30
2023-05-19T11:12:52.505Z,14.30
2023-05-19T11:15:25.931Z,14.40
2023-05-19T11:17:53.601Z,14.40
2023-05-19T11:20:25.668Z,14.40
2023-05-19T11:23:07.545Z,14.40
2023-05-19T11:25:48.738Z,14.40
2023-05-19T11:28:19.444Z,14.30
2023-05-19T11:30:51.693Z,14.40
2023-05-19T11:33:20.444Z,14.30
2023-05-19T11:35:49.848Z,14.20
2023-05-19T11:38:21.798Z,14.20
2023-05-19T11:40:50.007Z,14.20
2023-05-19T11:43:16.912Z,14.30
2023-05-19T11:45:44.906Z,14.30
2023-05-19T11:48:12.786Z,14.40
2023-05-19T11:50:44.163Z,14.50
2023-05-19T11:53:15.073Z,14.50
2023-05-19T11:55:48.780Z,14.60
2023-05-19T11:58:16.745Z,14.60
2023-05-19T12:00:46.154Z,14.60
2023-05-19T12:03:13.507Z,14.60
2023-05-19T12:05:47.988Z,14.60
2023-05-19T12:08:18.541Z,14.50
2023-05-19T12:10:50.656Z,14.50
2023-05-19T12:13:17.594Z,14.40
2023-05-19T12:15:44.539Z,14.40
2023-05-19T12:18:11.671Z,14.40
2023-05-19T12:20:38.624Z,14.40
2023-05-19T12:23:05.835Z,14.40
2023-05-19T12:25:33.117Z,14.40
2023-05-19T12:28:03.682Z,14.40
2023-05-19T12:30:32.370Z,14.40
2023-05-19T12:32:59.979Z,14.40
2023-05-19T12:35:32.191Z,14.50
2023-05-19T12:38:08.987Z,14.40
2023-05-19T12:40:37.212Z,14.40
2023-05-19T12:43:05.747Z,14.40
2023-05-19T12:45:42.439Z,14.40
2023-05-19T12:48:12.867Z,14.40
2023-05-19T12:50:40.104Z,14.30
2023-05-19T12:53:12.483Z,14.20
2023-05-19T12:55:44.898Z,14.20
2023-05-19T12:58:12.410Z,14.10
2023-05-19T13:00:50.597Z,14.10
2023-05-19T13:03:21.983Z,14.10
2023-05-19T13:05:51.393Z,14.20
2023-05-19T13:08:21.411Z,14.20
2023-05-19T13:10:49.653Z,14.20
2023-05-19T13:13:16.924Z,14.20
2023-05-19T13:15:45.455Z,14.20
2023-05-19T13:18:13.836Z,14.30
2023-05-19T13:20:42.300Z,14.30
2023-05-19T13:23:13.015Z,14.40
2023-05-19T13:25:41.324Z,14.40
2023-05-19T13:28:08.965Z,14.40
2023-05-19T13:30:38.589Z,14.50
2023-05-19T13:33:06.057Z,14.60
2023-05-19T13:35:37.180Z,14.60
2023-05-19T13:38:12.042Z,14.70
2023-05-19T13:40:39.903Z,14.70
2023-05-19T13:43:07.857Z,14.80
2023-05-19T13:45:34.926Z,14.80
2023-05-19T13:48:02.047Z,14.80
2023-05-19T13:50:29.058Z,14.80
2023-05-19T13:52:56.331Z,14.90
2023-05-19T13:55:23.653Z,14.90
2023-05-19T13:57:50.923Z,14.80
2023-05-19T14:00:18.995Z,14.70
2023-05-19T14:02:46.291Z,14.70
2023-05-19T14:05:13.455Z,14.70
2023-05-19T14:07:40.537Z,14.60
2023-05-19T14:10:08.111Z,14.60
2023-05-19T14:12:49.559Z,14.50
2023-05-19T14:15:23.006Z,14.50
2023-05-19T14:17:50.123Z,14.50
2023-05-19T14:20:17.322Z,14.50
2023-05-19T14:22:44.214Z,14.50
2023-05-19T14:25:11.131Z,14.40
2023-05-19T14:27:39.942Z,14.40
2023-05-19T14:30:08.051Z,14.50
2023-05-19T14:32:35.189Z,14.50
2023-05-19T14:35:04.940Z,14.50
2023-05-19T14:37:32.294Z,14.60
2023-05-19T14:40:06.978Z,14.60
2023-05-19T14:42:34.033Z,14.70
2023-05-19T14:45:03.549Z,14.70
2023-05-19T14:47:30.706Z,14.70
2023-05-19T14:49:57.613Z,14.80
2023-05-19T14:52:26.250Z,14.80
2023-05-19T14:54:53.259Z,14.90
2023-05-19T14:57:20.190Z,14.90
2023-05-19T14:59:54.456Z,15.00
2023-05-19T15:02:21.434Z,15.00
2023-05-19T15:04:51.691Z,15.00
2023-05-19T15:07:18.890Z,15.00
2023-05-19T15:09:46.375Z,14.90
2023-05-19T15:12:15.567Z,15.00
2023-05-19T15:14:42.742Z,14.90
2023-05-19T15:17:17.228Z,14.90
2023-05-19T15:19:46.746Z,14.90
2023-05-19T15:22:15.050Z,14.90
2023-05-19T15:24:44.345Z,14.90
2023-05-19T15:27:11.338Z,14.90
2023-05-19T15:29:38.287Z,14.90
2023-05-19T15:32:05.488Z,14.80
2023-05-19T15:34:32.441Z,14.80
2023-05-19T15:36:59.344Z,14.80
2023-05-19T15:39:26.281Z,14.70
2023-05-19T15:41:53.214Z,14.80
2023-05-19T15:44:20.117Z,14.80
2023-05-19T15:46:47.065Z,14.80
2023-05-19T15:49:13.936Z,14.80
2023-05-19T15:51:41.719Z,14.80
2023-05-19T15:54:11.031Z,14.80
2023-05-19T15:56:37.969Z,14.70
2023-05-19T15:59:05.785Z,14.70
2023-05-19T16:01:32.725Z,14.70
2023-05-19T16:04:01.062Z,14.80
2023-05-19T16:06:28.233Z,14.80
2023-05-19T16:08:55.113Z,14.80
2023-05-19T16:11:23.601Z,14.90
2023-05-19T16:13:50.725Z,14.90
2023-05-19T16:16:22.142Z,15.00
2023-05-19T16:18:49.378Z,15.00
2023-05-19T16:21:16.376Z,15.10
2023-05-19T16:23:43.367Z,15.10
2023-05-19T16:26:10.524Z,15.20
2023-05-19T16:28:37.500Z,15.20
2023-05-19T16:31:04.560Z,15.20
2023-05-19T16:33:31.415Z,15.10
2023-05-19T16:35:59.914Z,15.10
2023-05-19T16:38:26.887Z,15.10
2023-05-19T16:40:53.742Z,15.10
2023-05-19T16:43:20.833Z,15.10
2023-05-19T16:45:49.736Z,15.10
2023-05-19T16:48:20.402Z,15.10
2023-05-19T16:50:49.698Z,15.20
2023-05-19T16:53:16.605Z,15.20
2023-05-19T16:55:44.801Z,15.20
2023-05-19T16:58:13.235Z,15.30
2023-05-19T17:00:40.386Z,15.40
2023-05-19T17:03:07.331Z,15.40
2023-05-19T17:05:35.599Z,15.50
2023-05-19T17:08:02.466Z,15.50
2023-05-19T17:10:29.523Z,15.50
2023-05-19T17:12:56.418Z,15.50
2023-05-19T17:15:23.358Z,15.40
2023-05-19T17:17:50.204Z,15.40
2023-05-19T17:20:17.100Z,15.40
2023-05-19T17:22:44.017Z,15.40
2023-05-19T17:25:10.909Z,15.40
2023-05-19T17:27:37.773Z,15.40
2023-05-19T17:30:05.024Z,15.50
2023-05-19T17:32:35.939Z,15.40
2023-05-19T17:35:06.710Z,15.40
2023-05-19T17:37:33.663Z,15.40
2023-05-19T17:40:00.987Z,15.40
2023-05-19T17:42:29.186Z,15.40
2023-05-19T17:44:56.011Z,15.40
2023-05-19T17:47:22.950Z,15.40
2023-05-19T17:49:52.922Z,15.30
2023-05-19T17:52:20.605Z,15.30
2023-05-19T17:54:47.882Z,15.30
2023-05-19T17:57:17.133Z,15.30
2023-05-19T17:59:44.597Z,15.30
2023-05-19T18:02:12.087Z,15.30
2023-05-19T18:04:39.302Z,15.30
2023-05-19T18:07:08.909Z,15.30
2023-05-19T18:09:38.464Z,15.30
2023-05-19T18:12:06.262Z,15.30
2023-05-19T18:14:33.152Z,15.30
2023-05-19T18:17:00.549Z,15.30
2023-05-19T18:19:27.431Z,15.20
2023-05-19T18:21:54.421Z,15.30
2023-05-19T18:24:21.557Z,15.20
2023-05-19T18:26:48.526Z,15.10
2023-05-19T18:29:15.390Z,15.10
2023-05-19T18:31:42.466Z,15.00
2023-05-19T18:34:09.586Z,15.00
2023-05-19T18:36:36.492Z,15.00
2023-05-19T18:39:04.616Z,14.90
2023-05-19T18:41:32.070Z,14.90
2023-05-19T18:43:58.992Z,14.80
2023-05-19T18:46:26.075Z,14.80
2023-05-19T18:48:53.097Z,14.70
2023-05-19T18:51:21.408Z,14.70
2023-05-19T18:53:49.402Z,14.60
2023-05-19T18:56:26.654Z,14.50
2023-05-19T18:58:54.705Z,14.50
2023-05-19T19:01:21.693Z,14.40
2023-05-19T19:03:49.362Z,14.40
2023-05-19T19:06:17.304Z,14.30
2023-05-19T19:08:44.758Z,14.20
2023-05-19T19:11:11.630Z,14.20
2023-05-19T19:13:39.487Z,14.10
2023-05-19T19:16:07.128Z,14.10
2023-05-19T19:18:36.333Z,14.10
2023-05-19T19:21:05.655Z,14.00
2023-05-19T19:23:33.198Z,13.90
2023-05-19T19:26:00.549Z,13.90
2023-05-19T19:28:27.671Z,13.80
2023-05-19T19:30:54.660Z,13.80
2023-05-19T19:33:21.631Z,13.70
2023-05-19T19:35:48.727Z,13.60
2023-05-19T19:38:15.697Z,13.60
2023-05-19T19:40:42.837Z,13.50
2023-05-19T19:43:09.948Z,13.50
2023-05-19T19:45:39.285Z,13.50
2023-05-19T19:48:09.844Z,13.40
2023-05-19T19:50:36.949Z,13.40
2023-05-19T19:53:04.404Z,13.40
2023-05-19T19:55:31.768Z,13.30
2023-05-19T19:57:58.859Z,13.30
2023-05-19T20:00:26.018Z,13.20
2023-05-19T20:03:03.514Z,13.20
2023-05-19T20:05:32.113Z,13.20
2023-05-19T20:07:59.356Z,13.20
2023-05-19T20:10:26.709Z,13.20
2023-05-19T20:12:53.962Z,13.20
2023-05-19T20:15:21.219Z,13.10
2023-05-19T20:17:48.451Z,13.20
2023-05-19T20:20:15.945Z,13.20
2023-05-19T20:22:45.888Z,13.10
2023-05-19T20:25:13.005Z,13.10
2023-05-19T20:27:40.228Z,13.10
2023-05-19T20:30:08.905Z,13.20
2023-05-19T20:32:36.248Z,13.10
2023-05-19T20:35:03.239Z,13.20
2023-05-19T20:37:30.275Z,13.20
2023-05-19T20:39:57.267Z,13.20
2023-05-19T20:42:24.178Z,13.20
2023-05-19T20:44:51.382Z,13.20
2023-05-19T20:47:21.272Z,13.30
2023-05-19T20:49:48.386Z,13.30
2023-05-19T20:52:18.803Z,13.30
2023-05-19T20:54:46.480Z,13.30
2023-05-19T20:57:13.683Z,13.30
2023-05-19T20:59:40.707Z,13.30
2023-05-19T21:02:07.775Z,13.30
2023-05-19T21:04:34.907Z,13.40
2023-05-19T21:07:01.848Z,13.30
2023-05-19T21:09:28.869Z,13.30
2023-05-19T21:11:55.924Z,13.30
2023-05-19T21:14:23.413Z,13.30
2023-05-19T21:16:51.334Z,13.30
2023-05-19T21:19:20.633Z,13.30
2023-05-19T21:21:47.834Z,13.30
2023-05-19T21:24:15.538Z,13.30
2023-05-19T21:26:43.389Z,13.30
2023-05-19T21:29:10.696Z,13.30
2023-05-19T21:31:37.790Z,13.30
2023-05-19T21:34:07.214Z,13.30
2023-05-19T21:36:35.243Z,13.30
2023-05-19T21:39:02.312Z,13.30
2023-05-19T21:41:31.100Z,13.30
2023-05-19T21:43:57.982Z,13.30
2023-05-19T21:46:24.968Z,13.20
2023-05-19T21:48:51.828Z,13.20
2023-05-19T21:51:18.701Z,13.20
2023-05-19T21:53:45.594Z,13.20
2023-05-19T21:56:12.547Z,13.20
2023-05-19T21:58:39.481Z,13.20
2023-05-19T22:01:06.336Z,13.10
2023-05-19T22:03:33.354Z,13.10
2023-05-19T22:06:00.392Z,13.10
2023-05-19T22:08:27.315Z,13.00
2023-05-19T22:10:54.635Z,13.00
2023-05-19T22:13:21.799Z,12.90
2023-05-19T22:15:48.823Z,12.90
2023-05-19T22:18:15.794Z,12.90
2023-05-19T22:20:43.147Z,12.80
2023-05-19T22:23:10.677Z,12.80
2023-05-19T22:25:37.556Z,12.70
2023-05-19T22:28:07.401Z,12.70
2023-05-19T22:30:41.126Z,12.60
2023-05-19T22:33:11.748Z,12.60
2023-05-19T22:35:38.931Z,12.50
2023-05-19T22:38:07.447Z,12.50
2023-05-19T22:40:36.688Z,12.40
2023-05-19T22:43:03.639Z,12.40
2023-05-19T22:45:30.988Z,12.40
2023-05-19T22:47:57.850Z,12.40
2023-05-19T22:50:24.773Z,12.40
2023-05-19T22:52:52.018Z,12.40
2023-05-19T22:55:19.058Z,12.40
2023-05-19T22:57:45.919Z,12.40
2023-05-19T23:00:18.585Z,12.40
2023-05-19T23:02:45.545Z,12.40
2023-05-19T23:05:12.446Z,12.40
2023-05-19T23:07:39.394Z,12.40
2023-05-19T23:10:07.518Z,12.40
2023-05-19T23:12:34.869Z,12.40
2023-05-19T23:15:02.230Z,12.40
2023-05-19T23:17:29.225Z,12.40
2023-05-19T23:19:56.174Z,12.40
2023-05-19T23:22:23.055Z,12.40
2023-05-19T23:24:49.933Z,12.40
2023-05-19T23:27:16.827Z,12.40
2023-05-19T23:29:48.347Z,12.40
2023-05-19T23:32:15.398Z,12.40
2023-05-19T23:34:42.300Z,12.40
2023-05-19T23:37:09.260Z,12.40
2023-05-19T23:39:38.216Z,12.30
2023-05-19T23:42:05.774Z,12.40
2023-05-19T23:44:32.825Z,12.30
2023-05-19T23:46:59.801Z,12.30
2023-05-19T23:49:26.931Z,12.30
2023-05-19T23:51:53.823Z,12.30
2023-05-19T23:54:20.895Z,12.30
2023-05-19T23:56:47.752Z,12.30
2023-05-19T23:59:14.606Z,12.20
